Historyczne dane pomiarowe

Dodano dane terminowe – wersja testowa.

Dane z okresu 1951-2019

Wersja bazy: 1.34 [2019-03-16, lista zmian], aktualizacja planowana na 2019-04-15

Dane meteo z obszaru Polski uzyskane na podstawie danych udostępnionych przez Instytut Meteorologii i Gospodarki Wodnej – Państwowy Instytut Badawczy.

 

Wybierz Datę:    

       

TemperaturaWilgotnośćWiatrCiśnienieOpadyŚniegCzas trwania zjawisk
 Stacja t tx tn tng RH VA  wxwx mslp ppp RRR   cm mm wxwxwxwxwxwxwx
1983-08-14 11.6 15.7 7.9- 82.3- 5.0 3.7---- 0.0------------
1983-08-13 14.9 21.4 11.5- 76.5- 7.3 5.7---- 11.0------------
1983-08-12 18.8 25.0 11.0- 62.3- 4.7 2.7---- 2.5------------
1983-08-11 18.8 25.5 13.5- 73.8- 4.7 2.0---- 0.0------------
1983-08-10 17.6 23.7 9.5- 68.3- 4.7 1.3---- 0.0------------
1983-08-09 16.8 24.5 11.0- 91.5- 8.0 2.0---- 19.7------------
1983-08-08 15.5 20.5 13.0- 90.0- 7.3 2.0---- 7.6------------
1983-08-07 15.0 19.1 11.1- 86.8- 7.3 1.0---- 0.0------------
1983-08-06 14.2 18.3 10.4- 75.5- 7.3 1.0---- 1.1------------
1983-08-05 12.0 17.0 7.5- 80.5- 5.3 2.7---- 0.0------------
1983-08-04 10.6 15.8 9.5- 90.0- 8.0 4.0---- 1.3------------
1983-08-03 18.2 22.8 11.9- 74.5- 6.0 3.0---- 2.5------------
1983-08-02 20.0 26.5 13.4- 69.8- 7.0 3.0---- 5.6------------
1983-08-01 20.2 28.0 11.5- 56.8- 1.0 5.3---- 0.0------------
1983-07-31 16.5 24.2 5.6- 68.0- 0.3 1.3---- 0.0------------
1983-07-30 17.2 22.6 14.0- 78.0- 5.7 6.0---- 0.0------------
1983-07-29 18.6 25.0 10.0- 70.8- 5.0 3.0---- 4.3------------
1983-07-28 22.9 27.7 18.1- 61.5- 3.3 5.3---- 0.0------------
1983-07-27 21.8 31.0 10.5- 60.8- 3.3 1.7---- 0.0------------
1983-07-26 20.2 27.0 12.0- 63.5- 2.0 3.0---- 0.0------------
1983-07-25 14.6 20.1 7.5- 76.8- 6.0 2.0---- 0.0------------
1983-07-24 15.8 20.7 8.5- 81.0- 7.7 2.0---- 0.0------------
1983-07-23 15.9 22.1 11.9- 77.5- 6.3 6.0---- 0.0------------
1983-07-22 11.0 13.9 8.4- 85.5- 8.0 5.3---- 2.9------------
1983-07-21 12.2 16.1 8.0- 71.3- 4.3 6.0---- 0.0------------
1983-07-20 15.0 24.4 11.4- 86.3- 6.3 4.0---- 3.1------------
1983-07-19 22.6 28.0 17.1- 67.3- 4.7 2.3---- 5.7------------
1983-07-18 21.5 30.0 9.5- 69.0- 3.3 1.3---- 0.0------------
1983-07-17 20.3 25.2 13.5- 72.3- 6.0 2.7---- 0.0------------
1983-07-16 19.8 26.4 10.6- 73.5- 5.7 1.3---- 0.2------------
1983-07-15 18.4 24.1 9.6- 74.0- 4.3 2.7---- 0.0------------
1983-07-14 18.0 21.2 14.5- 84.8- 7.7 4.0---- 7.4------------
1983-07-13 19.0 24.7 15.1- 78.3- 7.0 4.7---- 3.6------------
1983-07-12 18.0 23.2 14.9- 85.0- 6.3 3.0---- 1.0------------
1983-07-11 17.0 25.6 13.0- 86.8- 7.0 3.0---- 10.9------------
1983-07-10 21.2 28.0 9.5- 58.5- 2.7 2.3---- 0.0------------
1983-07-09 20.6 26.7 9.8- 62.5- 2.0 2.0---- 0.0------------
1983-07-08 21.6 26.6 10.0- 47.8- 0.0 3.3---- 0.0------------
1983-07-07 20.7 28.2 10.0- 60.0- 1.0 3.7---- 0.0------------
1983-07-06 20.3 27.0 9.0- 61.3- 1.0 3.0---- 0.0------------
1983-07-05 18.3 25.0 8.5- 71.3- 6.0 2.3---- 0.0------------
1983-07-04 18.1 24.7 8.0- 68.5- 3.0 2.0---- 0.0------------
1983-07-03 17.1 22.6 7.5- 70.3- 3.0 1.0---- 0.0------------
1983-07-02 17.8 22.1 12.9- 76.5- 5.7 3.3---- 0.0------------
1983-07-01 18.8 24.6 8.0- 67.5- 3.3 1.7---- 0.0------------
1983-06-30 14.6 20.9 2.6- 76.0- 4.0 2.3---- 0.0------------
1983-06-29 12.7 17.1 6.2- 67.8- 4.0 2.3---- 0.0------------
1983-06-28 15.2 21.6 12.1- 85.3- 8.0 3.0---- 4.6------------
1983-06-27 20.4 25.6 12.3- 69.3- 6.0 5.0---- 13.1------------
1983-06-26 20.2 24.4 14.4- 75.0- 6.0 2.3---- 0.2------------
1983-06-25 21.0 25.8 13.9- 58.3- 1.3 4.7---- 0.8------------
1983-06-24 16.0 24.5 3.4- 59.3- 1.3 2.7---- 0.0------------
1983-06-23 13.2 18.9 6.5- 60.0- 0.0 2.7---- 0.0------------
1983-06-22 13.5 20.1 10.0- 66.0- 1.0 4.3---- 0.0------------
1983-06-21 17.8 23.6 7.5- 66.3- 1.3 2.7---- 0.0------------
1983-06-20 16.6 21.2 14.4- 93.3- 7.0 3.0---- 2.5------------
1983-06-19 13.5 15.7 11.0- 97.8- 8.0 3.7---- 4.2------------
1983-06-18 10.8 12.5 8.5- 92.5- 8.0 4.3---- 15.8------------
1983-06-17 10.8 13.6 8.5- 82.8- 8.0 2.7---- 3.1------------
1983-06-16 10.7 13.1 7.6- 85.0- 8.0 4.0---- 0.1------------
1053.9 ms

 

Źródłem pochodzenia danych jest Instytut Meteorologii i Gospodarki Wodnej – Państwowy Instytut Badawczy. Dane Instytutu Meteorologii i Gospodarki Wodnej – Państwowego Instytutu Badawczego zostały przetworzone.

Dane źródłowe można odnaleźć na stronie https://dane.imgw.pl